Time;durP1;ratioP1;P1;durP2;ratioP2;P2;SDS_P1;SDS_P2;PMS_P1;PMS_P2;Temp;Humidity;BMP_temperature;BMP_pressure;BME280_temperature;BME280_humidity;BME280_pressure;Samples;Min_cycle;Max_cycle;Signal;HPM_P1;HPM_P2
2022/08/06 00:01:32;;;;;;;0.73;0.43;;;;;;;25.37;62.49;100323.09;5029328;28;20045;-61
2022/08/06 00:03:58;;;;;;;2.55;0.65;;;;;;;25.31;62.94;100329.41;5029019;28;20639;-62
2022/08/06 00:06:23;;;;;;;3.95;0.47;;;;;;;25.21;63.53;100323.94;5027021;28;20045;-61
2022/08/06 00:08:49;;;;;;;3.00;0.60;;;;;;;25.06;64.27;100326.34;5028398;28;20036;-61
2022/08/06 00:11:14;;;;;;;1.10;0.50;;;;;;;24.93;64.87;100329.34;5028153;28;20509;-61
2022/08/06 00:13:40;;;;;;;4.97;0.73;;;;;;;24.79;65.25;100321.66;5029339;28;20053;-62
2022/08/06 00:16:06;;;;;;;1.73;0.70;;;;;;;24.74;64.89;100318.91;5020242;28;20033;-61
2022/08/06 00:18:31;;;;;;;3.55;0.63;;;;;;;24.97;63.67;100322.50;5009933;28;20030;-62
2022/08/06 00:20:57;;;;;;;2.45;0.60;;;;;;;25.10;63.09;100309.63;5024177;28;20593;-61
2022/08/06 00:23:22;;;;;;;0.90;0.52;;;;;;;25.13;63.42;100308.34;5029479;28;20030;-61
2022/08/06 00:25:48;;;;;;;1.27;0.50;;;;;;;25.05;64.51;100311.41;5023191;28;21834;-61
2022/08/06 00:28:13;;;;;;;1.05;0.50;;;;;;;24.93;65.04;100311.50;5029250;28;20120;-62
2022/08/06 00:30:39;;;;;;;2.30;0.63;;;;;;;24.85;65.75;100300.41;5029593;28;20385;-61
2022/08/06 00:33:04;;;;;;;1.20;0.43;;;;;;;24.78;65.55;100309.38;5029142;28;20111;-62
2022/08/06 00:35:30;;;;;;;3.42;0.65;;;;;;;24.71;66.04;100303.41;5009102;28;20058;-62
2022/08/06 00:37:56;;;;;;;1.45;0.60;;;;;;;24.63;66.46;100306.44;5003773;28;20028;-62
2022/08/06 00:40:22;;;;;;;0.90;0.70;;;;;;;24.58;66.87;100301.03;5006058;28;20896;-62
2022/08/06 00:42:49;;;;;;;1.00;0.50;;;;;;;24.59;66.78;100297.31;5021315;28;20458;-62
2022/08/06 00:45:14;;;;;;;1.52;0.45;;;;;;;24.55;66.92;100301.53;5023925;28;20591;-62
2022/08/06 00:47:40;;;;;;;1.75;0.70;;;;;;;24.52;67.17;100299.34;5028471;28;20029;-61
2022/08/06 00:50:06;;;;;;;0.95;0.60;;;;;;;24.51;66.92;100308.41;5025436;28;20033;-61
2022/08/06 00:52:31;;;;;;;2.15;0.60;;;;;;;24.44;66.69;100300.56;5028564;28;20474;-61
2022/08/06 00:54:57;;;;;;;2.00;0.65;;;;;;;24.41;66.26;100297.56;5025426;28;20144;-62
2022/08/06 00:57:22;;;;;;;1.13;0.63;;;;;;;24.42;66.49;100299.16;5012803;28;20041;-62
2022/08/06 00:59:48;;;;;;;1.48;0.88;;;;;;;24.42;65.96;100293.84;5009116;28;20022;-61
2022/08/06 01:02:13;;;;;;;2.85;0.70;;;;;;;24.43;66.29;100292.81;5008913;28;20037;-61
2022/08/06 01:04:39;;;;;;;3.10;0.88;;;;;;;24.39;66.16;100294.31;5007338;28;20324;-62
2022/08/06 01:07:05;;;;;;;1.25;0.70;;;;;;;24.34;65.88;100294.22;5019182;28;20041;-61
2022/08/06 01:09:31;;;;;;;2.47;1.10;;;;;;;24.30;65.23;100288.56;5025527;28;20444;-62
2022/08/06 01:11:56;;;;;;;5.97;0.77;;;;;;;24.35;64.70;100285.19;4989306;28;20569;-61
2022/08/06 01:14:22;;;;;;;3.20;0.73;;;;;;;24.46;64.40;100295.00;4989788;28;20053;-61
2022/08/06 01:16:57;;;;;;;1.63;0.68;;;;;;;24.52;64.89;100294.03;5001153;28;20508;-61
2022/08/06 01:19:25;;;;;;;;;;;;;;;24.43;65.58;100295.47;5022165;28;20042;-61
2022/08/06 01:22:10;;;;;;;5.43;0.88;;;;;;;24.47;65.35;100291.28;5023625;28;20012;-61
2022/08/06 01:25:10;;;;;;;1.35;0.50;;;;;;;24.50;66.41;100292.66;5028669;28;20030;-62
2022/08/06 01:27:54;;;;;;;1.10;0.65;;;;;;;24.45;65.85;100294.19;5013464;28;20100;-61
2022/08/06 01:30:22;;;;;;;2.10;0.70;;;;;;;24.46;66.15;100287.81;5008930;28;20409;-61
2022/08/06 01:32:58;;;;;;;1.40;0.70;;;;;;;24.47;66.00;100297.41;5008605;28;20588;-62
2022/08/06 01:35:33;;;;;;;1.40;0.63;;;;;;;24.40;65.53;100295.94;5009432;28;20045;-61
2022/08/06 01:38:13;;;;;;;1.67;0.90;;;;;;;24.37;65.64;100301.75;5018540;28;20085;-61
2022/08/06 01:40:42;;;;;;;1.38;0.70;;;;;;;24.40;65.47;100296.75;5008712;28;20481;-62
2022/08/06 01:43:11;;;;;;;2.47;0.73;;;;;;;24.41;65.00;100297.56;5007962;28;20156;-61
2022/08/06 01:45:39;;;;;;;1.77;1.10;;;;;;;24.43;64.29;100298.13;5013774;28;20044;-62
2022/08/06 01:48:10;;;;;;;1.42;0.70;;;;;;;24.44;64.76;100291.75;4999753;28;20030;-61
2022/08/06 01:50:39;;;;;;;0.90;0.60;;;;;;;24.45;64.75;100293.38;5017227;28;20164;-61
2022/08/06 01:53:08;;;;;;;2.22;0.70;;;;;;;24.45;64.29;100299.50;5035037;28;20208;-61
2022/08/06 01:55:39;;;;;;;1.10;0.50;;;;;;;24.47;64.93;100304.59;5034786;28;20485;-61
2022/08/06 01:58:06;;;;;;;1.00;0.80;;;;;;;24.40;65.68;100301.25;5030402;28;20034;-62
2022/08/06 02:00:37;;;;;;;2.08;0.85;;;;;;;24.36;66.24;100308.09;5029518;28;20513;-61
2022/08/06 02:03:10;;;;;;;1.80;0.73;;;;;;;24.20;66.79;100308.84;5033437;28;20037;-62
2022/08/06 02:05:37;;;;;;;1.80;0.90;;;;;;;24.12;67.30;100307.34;4999581;28;20516;-61
2022/08/06 02:08:05;;;;;;;1.15;0.70;;;;;;;24.14;68.06;100305.25;5033881;28;20049;-61
2022/08/06 02:10:34;;;;;;;1.10;1.00;;;;;;;24.12;68.16;100307.34;5033866;28;20025;-61
2022/08/06 02:13:02;;;;;;;2.88;0.98;;;;;;;24.03;68.41;100306.94;5034684;28;20037;-61
2022/08/06 02:15:30;;;;;;;2.40;0.50;;;;;;;23.93;69.08;100303.28;5034746;28;20026;-62
2022/08/06 02:18:04;;;;;;;1.30;0.88;;;;;;;23.92;69.10;100299.00;5033764;28;20029;-61
2022/08/06 02:20:36;;;;;;;1.58;0.85;;;;;;;23.93;68.98;100298.75;5031674;28;20029;-61
2022/08/06 02:23:06;;;;;;;2.10;0.82;;;;;;;23.95;69.21;100298.53;5033448;28;20564;-61
2022/08/06 02:25:35;;;;;;;1.20;0.80;;;;;;;23.95;68.81;100295.88;5034727;28;20060;-61
2022/08/06 02:28:04;;;;;;;2.28;0.90;;;;;;;23.95;69.11;100294.00;5017094;28;20548;-61
2022/08/06 02:30:34;;;;;;;3.85;1.00;;;;;;;23.93;68.98;100290.78;5020703;28;20025;-61
2022/08/06 02:33:00;;;;;;;3.63;0.80;;;;;;;23.88;69.54;100293.34;5026854;28;20034;-61
2022/08/06 02:35:27;;;;;;;2.65;0.80;;;;;;;23.85;69.49;100298.31;5032896;28;20037;-62
2022/08/06 02:38:07;;;;;;;1.15;0.70;;;;;;;23.89;69.18;100291.47;5034615;28;20064;-62
2022/08/06 02:40:40;;;;;;;3.08;0.75;;;;;;;24.17;67.60;100286.16;5032706;28;20188;-62
2022/08/06 02:43:31;;;;;;;2.03;0.80;;;;;;;24.43;66.47;100290.13;5034370;28;20492;-61
2022/08/06 02:46:00;;;;;;;2.22;0.60;;;;;;;24.64;65.17;100286.75;5026771;28;20393;-61
2022/08/06 02:48:40;;;;;;;2.25;0.60;;;;;;;24.59;66.16;100289.34;5034598;28;20017;-62
2022/08/06 02:51:11;;;;;;;2.67;0.63;;;;;;;24.35;67.35;100293.19;5032378;28;20084;-61
2022/08/06 02:53:45;;;;;;;1.20;0.93;;;;;;;24.09;68.24;100283.91;5033114;28;20033;-61
2022/08/06 02:56:13;;;;;;;4.00;0.80;;;;;;;23.93;69.11;100290.78;5031393;28;20029;-62
2022/08/06 02:58:45;;;;;;;1.20;0.85;;;;;;;23.85;69.91;100293.81;5031010;28;20572;-61
2022/08/06 03:01:15;;;;;;;2.45;1.08;;;;;;;23.82;70.55;100289.75;5030355;28;20037;-61
2022/08/06 03:03:44;;;;;;;1.58;0.55;;;;;;;23.82;70.57;100287.09;5030866;28;20029;-61
2022/08/06 03:06:14;;;;;;;1.80;0.88;;;;;;;23.75;70.72;100294.41;5028065;28;20132;-61
2022/08/06 03:08:40;;;;;;;2.20;1.25;;;;;;;23.74;70.44;100291.97;5031013;28;20084;-61
2022/08/06 03:11:09;;;;;;;1.33;0.80;;;;;;;23.73;70.08;100291.16;5029253;28;20026;-61
2022/08/06 03:13:37;;;;;;;5.18;0.77;;;;;;;23.84;69.63;100289.53;5030784;28;20468;-61
2022/08/06 03:16:04;;;;;;;1.35;0.70;;;;;;;23.81;69.55;100287.34;5026392;28;20040;-61
2022/08/06 03:18:32;;;;;;;2.15;0.75;;;;;;;23.70;70.14;100288.16;5031197;28;20030;-61
2022/08/06 03:21:00;;;;;;;10.27;1.20;;;;;;;23.63;70.56;100290.94;5285933;23;20061;-86
2022/08/06 03:23:28;;;;;;;1.20;0.65;;;;;;;23.59;70.76;100297.00;5030158;28;20044;-83
2022/08/06 03:25:55;;;;;;;2.13;0.80;;;;;;;23.57;71.34;100301.75;5029013;28;20022;-87
2022/08/06 03:28:24;;;;;;;1.98;0.75;;;;;;;23.55;71.29;100293.19;5030170;28;20084;-83
2022/08/06 03:30:51;;;;;;;1.95;0.63;;;;;;;23.54;71.39;100296.88;5028842;28;20484;-85
2022/08/06 03:33:19;;;;;;;2.35;0.70;;;;;;;23.46;71.36;100290.84;5030200;28;20370;-86
2022/08/06 03:35:45;;;;;;;2.30;0.90;;;;;;;23.39;71.31;100284.03;5030055;28;20096;-86
2022/08/06 03:38:12;;;;;;;1.55;1.10;;;;;;;23.31;71.66;100277.22;5029892;28;20022;-85
2022/08/06 03:41:05;;;;;;;1.35;0.93;;;;;;;23.28;71.91;100288.31;5029912;28;20037;-84
2022/08/06 03:43:30;;;;;;;1.63;0.85;;;;;;;23.35;71.53;100286.34;5029254;28;20036;-84
2022/08/06 03:46:00;;;;;;;1.00;0.90;;;;;;;23.36;71.93;100287.97;5029926;28;20029;-85
2022/08/06 03:48:32;;;;;;;1.30;0.60;;;;;;;23.29;72.25;100286.47;5028432;28;20385;-85
2022/08/06 03:51:02;;;;;;;1.55;0.73;;;;;;;23.21;72.80;100276.19;5022382;28;20065;-82
2022/08/06 03:53:29;;;;;;;1.38;0.90;;;;;;;23.19;72.76;100281.72;5032220;28;20022;-84
2022/08/06 03:55:58;;;;;;;1.38;0.90;;;;;;;23.31;72.15;100281.72;5032661;28;20038;-82
2022/08/06 03:58:26;;;;;;;1.55;0.90;;;;;;;23.54;71.03;100278.28;5030122;28;20080;-82
2022/08/06 04:01:30;;;;;;;2.75;0.85;;;;;;;23.54;72.00;100276.44;5030069;28;20044;-86
2022/08/06 04:03:57;;;;;;;2.80;0.82;;;;;;;23.56;70.81;100281.50;4949321;28;20035;-88
2022/08/06 04:06:24;;;;;;;2.88;0.90;;;;;;;23.75;69.46;100283.75;4949135;28;20078;-86
2022/08/06 04:08:52;;;;;;;1.42;0.77;;;;;;;23.96;68.44;100279.66;4949346;28;20043;-83
2022/08/06 04:11:18;;;;;;;1.40;0.82;;;;;;;24.11;67.63;100287.91;4949244;28;20046;-85
2022/08/06 04:13:45;;;;;;;2.38;0.73;;;;;;;24.27;66.93;100285.56;4949075;28;20028;-84
2022/08/06 04:16:14;;;;;;;1.08;0.68;;;;;;;24.39;66.30;100289.81;4949097;28;20035;-84
2022/08/06 04:18:41;;;;;;;1.08;0.80;;;;;;;24.53;65.22;100285.00;4949087;28;20047;-86
2022/08/06 04:21:19;;;;;;;2.65;0.90;;;;;;;24.63;64.80;100290.47;4948597;28;20086;-83
2022/08/06 04:23:45;;;;;;;2.95;0.80;;;;;;;24.68;64.70;100290.56;4949182;28;20077;-84
2022/08/06 04:26:13;;;;;;;3.92;1.08;;;;;;;24.68;64.78;100297.75;4948991;28;20059;-85
2022/08/06 04:29:00;;;;;;;1.95;0.85;;;;;;;24.69;64.69;100302.81;4948874;28;20439;-83
2022/08/06 04:31:29;;;;;;;4.00;0.90;;;;;;;24.72;64.66;100304.19;4948267;28;20047;-85
2022/08/06 04:33:56;;;;;;;3.38;0.60;;;;;;;24.71;64.80;100308.72;4948787;28;20105;-84
2022/08/06 04:36:23;;;;;;;3.03;0.60;;;;;;;24.73;64.33;100306.63;4948749;28;20035;-83
2022/08/06 04:38:49;;;;;;;1.13;0.70;;;;;;;24.77;64.49;100313.09;5020469;28;20080;-84
2022/08/06 04:41:15;;;;;;;2.28;0.65;;;;;;;24.86;64.04;100315.34;5029493;28;20132;-83
2022/08/06 04:43:40;;;;;;;1.95;0.63;;;;;;;24.95;63.55;100316.56;5029401;28;20122;-84
2022/08/06 04:46:08;;;;;;;2.50;0.70;;;;;;;25.00;63.54;100316.69;5029410;28;20021;-84
2022/08/06 04:48:34;;;;;;;1.30;0.50;;;;;;;25.01;63.67;100319.13;5029287;28;20033;-85
2022/08/06 04:51:05;;;;;;;4.38;0.80;;;;;;;25.04;63.51;100326.63;5029472;28;20504;-83
2022/08/06 04:53:37;;;;;;;1.38;0.60;;;;;;;25.10;63.47;100319.50;5029443;28;20029;-84
2022/08/06 04:56:03;;;;;;;1.85;0.70;;;;;;;25.15;62.76;100319.56;5011724;28;20177;-84
2022/08/06 04:58:29;;;;;;;2.85;0.70;;;;;;;25.22;62.86;100328.22;5029248;28;20100;-86
2022/08/06 05:00:54;;;;;;;2.05;0.60;;;;;;;25.25;62.74;100318.91;5029053;28;20035;-86
2022/08/06 05:03:20;;;;;;;1.77;0.70;;;;;;;25.24;62.58;100328.78;5029134;28;20493;-85
2022/08/06 05:06:08;;;;;;;2.58;0.60;;;;;;;25.26;62.86;100318.66;5029235;28;20052;-86
2022/08/06 05:08:36;;;;;;;3.55;0.80;;;;;;;25.26;62.74;100324.00;5029077;28;20040;-85
2022/08/06 05:11:34;;;;;;;3.88;0.80;;;;;;;25.31;62.41;100323.28;5029263;28;20033;-85
2022/08/06 05:14:24;;;;;;;2.40;0.77;;;;;;;25.35;62.16;100319.88;4999686;28;20038;-83
2022/08/06 05:16:55;;;;;;;3.40;0.70;;;;;;;25.45;62.17;100319.22;5027524;28;20080;-86
2022/08/06 05:19:41;;;;;;;1.33;0.57;;;;;;;25.55;61.32;100322.00;5028553;28;20372;-87
2022/08/06 05:22:16;;;;;;;1.40;0.80;;;;;;;25.64;61.10;100319.75;5027143;28;20061;-85
2022/08/06 05:24:51;;;;;;;1.00;0.50;;;;;;;25.67;61.03;100321.91;5011172;28;20029;-86
2022/08/06 05:27:17;;;;;;;0.70;0.60;;;;;;;25.71;61.08;100329.19;5028948;28;20040;-84
2022/08/06 05:29:43;;;;;;;0.73;0.68;;;;;;;25.79;60.60;100325.28;5028821;28;20034;-83
2022/08/06 05:32:09;;;;;;;1.52;1.10;;;;;;;25.83;60.58;100330.94;5028633;28;20032;-84
2022/08/06 05:34:34;;;;;;;3.03;0.90;;;;;;;25.77;60.90;100330.88;5028679;28;20033;-84
2022/08/06 05:37:21;;;;;;;1.50;0.90;;;;;;;25.66;61.38;100334.47;5028744;28;20477;-85
2022/08/06 05:39:46;;;;;;;3.38;0.77;;;;;;;25.63;62.31;100337.59;5028342;28;20030;-86
2022/08/06 05:42:11;;;;;;;1.48;1.10;;;;;;;25.64;62.41;100338.41;5028589;28;20079;-87
2022/08/06 05:44:37;;;;;;;1.35;0.95;;;;;;;25.58;63.09;100348.19;5028628;28;20508;-85
2022/08/06 05:47:10;;;;;;;1.58;0.82;;;;;;;25.61;63.47;100345.03;5010897;28;20033;-85
2022/08/06 05:49:46;;;;;;;2.30;0.80;;;;;;;25.63;63.00;100350.94;5028821;28;20084;-84
2022/08/06 05:52:12;;;;;;;4.03;1.10;;;;;;;25.72;62.82;100351.34;5027203;28;20025;-84
2022/08/06 05:55:27;;;;;;;2.17;0.73;;;;;;;25.90;62.91;100353.72;5028610;28;20025;-82
2022/08/06 05:58:04;;;;;;;1.27;0.90;;;;;;;26.11;62.79;100354.75;4947955;28;20123;-84
2022/08/06 06:00:32;;;;;;;1.95;0.90;;;;;;;26.25;62.08;100350.66;4947748;28;20127;-85
2022/08/06 06:02:59;;;;;;;1.25;0.93;;;;;;;26.45;61.32;100350.09;4947926;28;20114;-89
2022/08/06 06:05:26;;;;;;;3.50;1.02;;;;;;;26.58;60.99;100346.19;4947638;28;20118;-85
2022/08/06 06:07:54;;;;;;;0.95;0.73;;;;;;;26.74;59.70;100348.78;4947659;28;20027;-85
2022/08/06 06:10:22;;;;;;;2.97;1.00;;;;;;;26.92;58.94;100344.13;4947845;29;20098;-87
2022/08/06 06:12:48;;;;;;;1.15;0.90;;;;;;;27.08;58.08;100348.53;4948001;29;20506;-83
2022/08/06 06:15:15;;;;;;;3.80;0.70;;;;;;;27.27;57.31;100347.06;4962503;28;20019;-83
2022/08/06 06:17:58;;;;;;;0.80;0.55;;;;;;;27.39;57.08;100352.25;5007744;23;20107;-60
2022/08/06 06:20:45;;;;;;;1.58;1.00;;;;;;;27.54;55.86;100356.84;5027711;28;20025;-61
2022/08/06 06:23:20;;;;;;;1.65;0.82;;;;;;;27.72;55.46;100349.22;5022731;28;20037;-60
2022/08/06 06:26:08;;;;;;;1.13;0.80;;;;;;;27.78;54.78;100350.06;5016514;28;20040;-60
2022/08/06 06:29:01;;;;;;;2.08;1.02;;;;;;;27.88;54.46;100358.16;5027468;28;20077;-60
2022/08/06 06:31:45;;;;;;;1.13;0.90;;;;;;;28.06;55.05;100356.84;5029184;28;20136;-60
2022/08/06 06:34:33;;;;;;;2.70;0.82;;;;;;;28.28;54.64;100351.34;5031703;28;20084;-60
2022/08/06 06:37:19;;;;;;;1.42;0.75;;;;;;;28.24;54.95;100361.78;5020753;28;20034;-61
2022/08/06 06:39:52;;;;;;;5.88;0.95;;;;;;;28.24;54.25;100364.47;5030003;28;20029;-60
2022/08/06 06:42:25;;;;;;;2.65;0.90;;;;;;;28.31;53.95;100372.25;5031046;28;20125;-60
2022/08/06 06:45:02;;;;;;;3.70;0.70;;;;;;;28.37;53.58;100360.44;5013248;28;20065;-60
2022/08/06 06:47:36;;;;;;;1.63;0.70;;;;;;;28.44;53.02;100365.56;5024085;28;20029;-60
2022/08/06 06:50:15;;;;;;;0.75;0.55;;;;;;;28.61;53.12;100369.63;5029328;28;20519;-62
2022/08/06 06:52:44;;;;;;;0.90;0.80;;;;;;;28.83;52.71;100364.03;5017187;28;20038;-60
2022/08/06 06:55:33;;;;;;;2.15;0.60;;;;;;;28.96;51.38;100363.50;5026761;28;20030;-61
2022/08/06 06:58:23;;;;;;;2.80;0.75;;;;;;;29.12;50.60;100361.63;5027786;28;20112;-60
2022/08/06 07:00:52;;;;;;;1.98;0.65;;;;;;;29.26;50.89;100364.56;5026436;28;20033;-60
2022/08/06 07:03:19;;;;;;;1.50;0.50;;;;;;;29.42;50.43;100368.03;5028907;28;20040;-61
2022/08/06 07:05:47;;;;;;;2.83;0.75;;;;;;;29.47;49.56;100370.72;5027904;28;20066;-60
2022/08/06 07:08:14;;;;;;;5.32;1.10;;;;;;;29.53;49.62;100373.13;5024938;28;20025;-61
2022/08/06 07:10:43;;;;;;;1.10;0.95;;;;;;;29.59;49.44;100380.09;5029005;28;20025;-61
2022/08/06 07:13:11;;;;;;;1.38;0.80;;;;;;;29.62;48.87;100381.44;5021059;28;20077;-62
2022/08/06 07:15:37;;;;;;;1.10;0.70;;;;;;;29.63;49.51;100380.34;5022676;28;20057;-62
2022/08/06 07:18:05;;;;;;;3.88;0.68;;;;;;;29.67;48.95;100374.16;5025438;28;20041;-62
2022/08/06 07:20:32;;;;;;;1.85;0.60;;;;;;;29.75;48.97;100372.81;5025283;28;21030;-63
2022/08/06 07:23:01;;;;;;;2.03;0.60;;;;;;;29.89;48.65;100370.31;5017389;28;20161;-61
2022/08/06 07:25:28;;;;;;;2.28;0.77;;;;;;;30.02;48.65;100365.19;5021883;28;20112;-62
2022/08/06 07:27:54;;;;;;;1.38;0.85;;;;;;;30.26;47.92;100372.59;5019257;28;20112;-62
2022/08/06 07:30:21;;;;;;;1.00;0.70;;;;;;;30.48;47.63;100364.13;5028782;28;20513;-61
2022/08/06 07:32:48;;;;;;;3.47;1.15;;;;;;;30.66;47.16;100364.31;5026472;28;20065;-61
2022/08/06 07:35:16;;;;;;;1.20;0.60;;;;;;;30.71;46.12;100360.78;5012502;28;20025;-61
2022/08/06 07:37:50;;;;;;;1.17;0.85;;;;;;;30.81;45.21;100366.06;5022378;28;20040;-62
2022/08/06 07:40:23;;;;;;;1.92;1.23;;;;;;;30.97;45.41;100364.88;5025764;28;20025;-61
2022/08/06 07:42:55;;;;;;;3.55;0.80;;;;;;;31.15;44.77;100366.09;5028223;28;20042;-61
2022/08/06 07:45:24;;;;;;;4.35;1.35;;;;;;;31.24;44.60;100368.94;5026988;28;20461;-61
2022/08/06 07:47:54;;;;;;;8.52;1.00;;;;;;;31.31;44.87;100369.44;5006416;28;20049;-61
2022/08/06 07:50:21;;;;;;;4.22;0.80;;;;;;;31.33;44.71;100368.06;5027394;28;20168;-61
2022/08/06 07:52:47;;;;;;;1.15;0.73;;;;;;;31.36;45.97;100372.06;5021499;28;20172;-61
2022/08/06 07:55:13;;;;;;;2.72;0.82;;;;;;;31.42;45.28;100378.22;5021803;28;20423;-61
2022/08/06 07:57:40;;;;;;;1.40;0.80;;;;;;;31.71;45.07;100378.97;5025343;28;20440;-61
2022/08/06 08:00:06;;;;;;;1.10;0.90;;;;;;;32.07;44.46;100382.06;5006696;28;20026;-62
2022/08/06 08:02:33;;;;;;;3.67;0.80;;;;;;;31.96;44.73;100381.38;5024087;28;20029;-60
2022/08/06 08:07:45;;;;;;;1.35;0.90;;;;;;;31.75;45.49;100374.63;5027539;28;20072;-61
2022/08/06 08:10:11;;;;;;;7.03;1.05;;;;;;;31.94;44.04;100377.38;5022717;28;20074;-62
2022/08/06 08:12:37;;;;;;;4.65;0.80;;;;;;;32.25;42.86;100384.00;5023278;28;20037;-63
2022/08/06 08:15:05;;;;;;;2.15;0.80;;;;;;;32.22;43.09;100373.00;5021472;28;20041;-61
2022/08/06 08:17:31;;;;;;;1.25;0.90;;;;;;;31.87;43.41;100377.72;5024700;28;20049;-61
2022/08/06 08:20:02;;;;;;;1.48;1.17;;;;;;;31.55;43.48;100378.34;5025916;28;20097;-62
2022/08/06 08:22:28;;;;;;;1.08;0.70;;;;;;;31.37;44.77;100379.06;5025300;28;20032;-62
2022/08/06 08:24:54;;;;;;;3.22;1.10;;;;;;;31.31;45.83;100380.19;5021786;28;20030;-61
2022/08/06 08:27:21;;;;;;;1.05;0.70;;;;;;;31.24;46.33;100375.13;5021276;28;20034;-62
2022/08/06 08:29:46;;;;;;;3.67;0.90;;;;;;;31.72;45.47;100380.59;5008795;28;20089;-61
2022/08/06 08:32:12;;;;;;;1.95;1.00;;;;;;;32.24;43.02;100378.88;5027102;28;20818;-61
2022/08/06 08:34:37;;;;;;;3.08;0.70;;;;;;;32.57;41.66;100375.19;5023505;28;20805;-62
2022/08/06 08:37:03;;;;;;;0.80;0.70;;;;;;;32.92;41.93;100376.56;5013176;28;20022;-62
2022/08/06 08:39:30;;;;;;;2.08;0.88;;;;;;;33.10;41.68;100377.56;5027419;28;20108;-62
2022/08/06 08:42:06;;;;;;;2.88;1.02;;;;;;;33.39;41.08;100379.28;5003902;28;20068;-62
2022/08/06 08:44:33;;;;;;;0.85;0.57;;;;;;;33.60;40.79;100380.47;5024872;28;20067;-61
2022/08/06 08:46:59;;;;;;;2.25;0.93;;;;;;;33.72;41.22;100383.47;5013012;28;20040;-62
2022/08/06 08:49:28;;;;;;;2.05;0.80;;;;;;;33.79;40.81;100383.91;5027336;28;20033;-63
2022/08/06 08:51:55;;;;;;;2.58;0.75;;;;;;;33.83;40.32;100382.22;5015880;28;20686;-62
2022/08/06 08:54:22;;;;;;;3.13;0.85;;;;;;;34.03;40.27;100382.91;5025174;28;20033;-62
2022/08/06 08:56:48;;;;;;;1.20;0.90;;;;;;;33.84;40.09;100381.13;5028461;28;20022;-62
2022/08/06 08:59:15;;;;;;;2.30;0.70;;;;;;;33.75;39.38;100385.59;5028058;28;20025;-60
2022/08/06 09:01:41;;;;;;;3.67;0.90;;;;;;;33.25;39.15;100384.63;5024026;28;20041;-59
2022/08/06 09:04:07;;;;;;;3.22;0.95;;;;;;;32.94;40.04;100382.44;5025271;28;20025;-59
2022/08/06 09:06:36;;;;;;;0.93;0.80;;;;;;;32.92;41.10;100390.03;5025519;28;20044;-60
2022/08/06 09:09:03;;;;;;;1.15;0.88;;;;;;;33.17;40.64;100383.41;5023747;28;20516;-59
2022/08/06 09:11:30;;;;;;;2.03;0.80;;;;;;;33.27;39.57;100385.94;5025022;28;20177;-59
2022/08/06 09:13:56;;;;;;;6.82;1.30;;;;;;;33.48;38.16;100380.19;5024168;28;20497;-62
2022/08/06 09:16:21;;;;;;;1.10;0.80;;;;;;;33.76;37.41;100386.38;5027160;28;20025;-62
2022/08/06 09:18:47;;;;;;;2.15;0.75;;;;;;;33.84;37.22;100391.91;5027366;28;20148;-63
2022/08/06 09:21:12;;;;;;;1.33;0.70;;;;;;;33.52;38.82;100392.00;5019435;28;20036;-61
2022/08/06 09:23:39;;;;;;;2.00;0.70;;;;;;;33.07;39.21;100398.97;5024423;28;20033;-62
2022/08/06 09:26:06;;;;;;;2.50;0.98;;;;;;;33.03;38.78;100397.97;5007888;28;20792;-62
2022/08/06 09:28:40;;;;;;;1.10;0.90;;;;;;;32.96;38.53;100399.16;5022533;28;20370;-62
2022/08/06 09:31:12;;;;;;;1.33;0.77;;;;;;;32.94;39.53;100403.25;5021288;28;20106;-62
2022/08/06 09:33:42;;;;;;;1.25;1.00;;;;;;;32.86;39.76;100403.91;5020004;28;20607;-61
2022/08/06 09:36:12;;;;;;;2.42;0.85;;;;;;;32.84;39.65;100401.50;5000761;28;20124;-62
2022/08/06 09:38:48;;;;;;;2.25;0.75;;;;;;;32.88;39.07;100393.63;5019745;28;20103;-61
2022/08/06 09:41:14;;;;;;;2.80;1.15;;;;;;;32.81;39.31;100387.78;5008545;28;20068;-63
2022/08/06 09:43:40;;;;;;;3.50;0.90;;;;;;;32.72;38.90;100382.22;5018459;28;20030;-63
2022/08/06 09:46:07;;;;;;;0.85;0.70;;;;;;;32.83;38.53;100397.19;5025496;28;20120;-62
2022/08/06 09:48:33;;;;;;;4.88;1.23;;;;;;;32.78;38.86;100399.97;5004387;28;20068;-60
2022/08/06 09:50:59;;;;;;;1.83;0.85;;;;;;;32.46;40.28;100403.41;5022778;28;20044;-64
2022/08/06 09:53:25;;;;;;;5.95;0.85;;;;;;;32.37;40.16;100404.34;5015251;28;20030;-62
2022/08/06 09:55:54;;;;;;;2.08;0.90;;;;;;;32.37;39.52;100402.44;5022926;28;20042;-62
2022/08/06 09:58:35;;;;;;;1.13;1.00;;;;;;;32.52;39.18;100404.13;5023430;28;20373;-60
2022/08/06 10:01:37;;;;;;;1.30;0.80;;;;;;;32.25;40.65;100389.38;5003380;28;20482;-61
2022/08/06 10:04:03;;;;;;;0.75;0.60;;;;;;;32.06;40.81;100396.63;4999795;28;20788;-63
2022/08/06 10:06:28;;;;;;;7.82;1.00;;;;;;;32.04;40.52;100398.81;5021613;28;20022;-61
2022/08/06 10:09:11;;;;;;;1.58;1.08;;;;;;;32.08;40.04;100399.84;5029374;28;20122;-62
2022/08/06 10:11:39;;;;;;;2.42;0.95;;;;;;;32.22;39.75;100389.16;5019514;28;20034;-62
2022/08/06 10:14:05;;;;;;;5.05;1.00;;;;;;;32.43;39.10;100385.09;5026846;28;20370;-63
2022/08/06 10:16:31;;;;;;;1.85;0.90;;;;;;;32.63;37.81;100403.66;5020147;28;20041;-62
2022/08/06 10:18:58;;;;;;;1.10;0.93;;;;;;;32.67;37.82;100399.28;5019509;28;20085;-64
2022/08/06 10:21:28;;;;;;;4.80;1.08;;;;;;;32.51;38.51;100392.53;5024206;28;20068;-64
2022/08/06 10:23:58;;;;;;;1.50;1.02;;;;;;;32.25;38.91;100393.97;5005928;28;20207;-60
2022/08/06 10:26:26;;;;;;;5.07;1.50;;;;;;;32.27;39.30;100381.81;5031997;28;20032;-63
2022/08/06 10:28:53;;;;;;;3.15;1.10;;;;;;;32.35;38.86;100393.84;5030868;28;20037;-64
2022/08/06 10:31:20;;;;;;;5.00;0.85;;;;;;;32.16;41.50;100414.53;5029995;28;20029;-63
2022/08/06 10:33:51;;;;;;;21.98;3.42;;;;;;;31.61;46.41;100409.50;5031141;28;20033;-61
2022/08/06 10:36:22;;;;;;;17.23;3.80;;;;;;;30.44;58.16;100420.34;5030847;28;20102;-63
2022/08/06 10:38:50;;;;;;;7.97;2.80;;;;;;;29.22;68.02;100430.56;5030962;28;20183;-64
2022/08/06 10:41:17;;;;;;;7.57;3.10;;;;;;;28.16;70.55;100447.16;5031713;28;20491;-64
2022/08/06 10:43:42;;;;;;;13.05;3.60;;;;;;;27.17;74.04;100456.63;5030580;28;20394;-63
2022/08/06 10:46:12;;;;;;;12.43;4.60;;;;;;;26.25;79.15;100462.00;5030306;28;20036;-68
2022/08/06 10:48:41;;;;;;;14.52;4.07;;;;;;;25.19;81.91;100479.84;5015865;28;20041;-68
2022/08/06 10:51:08;;;;;;;9.90;4.22;;;;;;;24.07;86.89;100518.34;5011393;28;20065;-72
2022/08/06 10:53:36;;;;;;;4.85;1.58;;;;;;;23.31;87.55;100523.63;5012065;28;20183;-61
2022/08/06 10:56:04;;;;;;;2.63;1.92;;;;;;;22.99;88.75;100534.47;5021249;28;20084;-62
2022/08/06 10:58:32;;;;;;;4.57;3.50;;;;;;;22.34;96.55;100557.25;5030687;28;20040;-62
2022/08/06 11:00:59;;;;;;;4.00;1.92;;;;;;;21.78;98.52;100670.31;5030943;28;20326;-63
2022/08/06 11:04:12;;;;;;;5.50;1.90;;;;;;;19.89;100.00;100626.25;5031402;28;20037;-61
2022/08/06 11:07:22;;;;;;;9.52;2.85;;;;;;;19.54;100.00;100592.03;4969046;28;20030;-65
2022/08/06 11:10:02;;;;;;;9.40;3.40;;;;;;;19.42;100.00;100492.38;4940728;28;20046;-61
2022/08/06 11:13:02;;;;;;;2.95;2.55;;;;;;;19.57;100.00;100447.31;4969257;28;20093;-57
2022/08/06 11:15:35;;;;;;;9.38;4.65;;;;;;;19.92;100.00;100487.56;4969521;28;20031;-61
2022/08/06 11:18:08;;;;;;;10.73;5.45;;;;;;;20.32;100.00;100475.88;4968188;28;20146;-59
2022/08/06 11:20:45;;;;;;;6.78;4.57;;;;;;;20.31;100.00;100470.81;4969497;28;20109;-61
2022/08/06 11:23:13;;;;;;;3.38;2.60;;;;;;;20.38;100.00;100471.63;4968372;28;20038;-54
2022/08/06 11:25:43;;;;;;;3.65;3.35;;;;;;;20.71;100.00;100443.22;4969231;28;20121;-62
2022/08/06 11:28:10;;;;;;;4.50;4.10;;;;;;;21.12;100.00;100448.06;4968640;28;20031;-62
2022/08/06 11:30:50;;;;;;;5.85;4.40;;;;;;;21.58;100.00;100446.94;4950596;28;20506;-60
2022/08/06 11:33:21;;;;;;;4.90;4.45;;;;;;;21.62;100.00;100457.91;4968385;28;20039;-61
2022/08/06 11:35:48;;;;;;;4.40;3.90;;;;;;;21.72;100.00;100460.88;4961404;28;20042;-59
2022/08/06 11:38:35;;;;;;;5.05;3.60;;;;;;;21.76;100.00;100454.09;5012100;28;20045;-56
2022/08/06 11:41:06;;;;;;;3.00;2.80;;;;;;;21.92;100.00;100450.88;5029326;28;20033;-59
2022/08/06 11:43:42;;;;;;;3.75;3.42;;;;;;;22.20;100.00;100463.72;5016907;28;20098;-59